Time;durP1;ratioP1;P1;durP2;ratioP2;P2;SDS_P1;SDS_P2;PMS_P1;PMS_P2;Temp;Humidity;BMP_temperature;BMP_pressure;BME280_temperature;BME280_humidity;BME280_pressure;Samples;Min_cycle;Max_cycle;Signal;HPM_P1;HPM_P2
2022/05/16 00:25:22;;;;;;;17.60;3.93;;;;;;;16.30;49.11;99391.13;6250927;22;20603;-86
2022/05/16 00:27:53;;;;;;;20.83;3.87;;;;;;;16.61;47.76;99392.91;6261681;23;20267;-87
2022/05/16 00:30:24;;;;;;;29.80;4.90;;;;;;;16.66;46.83;99391.81;6260974;23;20277;-88
2022/05/16 00:32:54;;;;;;;16.73;4.07;;;;;;;16.47;46.93;99391.97;6261250;23;20255;-87
2022/05/16 00:35:25;;;;;;;15.00;3.77;;;;;;;16.39;47.27;99395.88;6261208;23;20286;-86
2022/05/16 00:37:56;;;;;;;17.47;3.97;;;;;;;16.26;48.44;99394.84;6260773;23;20453;-87
2022/05/16 00:40:28;;;;;;;12.43;3.47;;;;;;;16.22;47.14;99395.94;6261144;23;20271;-87
2022/05/16 00:43:04;;;;;;;9.40;3.20;;;;;;;16.11;46.97;99387.75;6257122;23;20310;-87
2022/05/16 00:45:35;;;;;;;16.27;3.83;;;;;;;16.52;47.66;99392.56;6254515;23;20303;-87
2022/05/16 00:48:06;;;;;;;13.90;3.00;;;;;;;16.60;46.10;99400.94;6253979;23;20247;-86
2022/05/16 00:50:40;;;;;;;14.00;3.37;;;;;;;16.58;45.95;99397.53;6252596;23;20306;-84
2022/05/16 00:53:12;;;;;;;8.33;2.60;;;;;;;16.58;45.64;99392.25;6253649;23;20577;-86
2022/05/16 00:55:46;;;;;;;18.47;3.33;;;;;;;16.59;46.30;99393.94;6253955;23;20250;-84
2022/05/16 00:58:17;;;;;;;12.13;2.83;;;;;;;16.42;46.02;99407.19;6253550;23;20244;-86
2022/05/16 01:00:49;;;;;;;15.00;3.43;;;;;;;16.33;47.01;99398.84;6254043;23;20263;-84
2022/05/16 01:06:11;;;;;;;15.30;3.00;;;;;;;16.55;47.54;99389.78;6253576;23;20290;-84
2022/05/16 01:08:43;;;;;;;11.77;2.50;;;;;;;16.70;45.80;99375.75;6253740;23;20431;-84
2022/05/16 01:11:16;;;;;;;12.13;3.03;;;;;;;17.20;45.71;99406.38;6253433;23;20298;-85
2022/05/16 01:13:47;;;;;;;11.77;2.53;;;;;;;17.11;45.33;99401.59;6253889;23;20252;-85
2022/05/16 01:16:18;;;;;;;12.63;2.30;;;;;;;17.22;45.15;99420.34;6253666;23;20315;-83
2022/05/16 01:18:49;;;;;;;10.20;2.57;;;;;;;17.45;44.02;99404.97;6253458;23;20876;-87
2022/05/16 01:21:32;;;;;;;9.27;2.30;;;;;;;17.56;44.08;99402.53;6253914;23;20255;-86
2022/05/16 01:24:08;;;;;;;8.83;2.10;;;;;;;17.86;44.67;99409.59;6253878;23;20705;-86
2022/05/16 01:26:39;;;;;;;7.43;2.63;;;;;;;17.89;43.93;99377.69;6253376;23;20255;-85
2022/05/16 01:29:13;;;;;;;10.43;2.20;;;;;;;18.06;41.34;99390.75;6253813;23;20243;-85
2022/05/16 01:31:45;;;;;;;20.77;2.50;;;;;;;18.05;42.48;99412.84;6253595;23;20287;-87
2022/05/16 01:34:16;;;;;;;12.23;2.30;;;;;;;17.76;41.48;99360.88;6253638;23;20609;-86
2022/05/16 01:36:46;;;;;;;11.30;2.67;;;;;;;18.13;41.92;99395.66;6253677;23;20281;-85
2022/05/16 01:39:19;;;;;;;10.30;2.90;;;;;;;18.11;39.56;99399.22;6254043;23;20239;-85
2022/05/16 01:41:50;;;;;;;16.23;5.07;;;;;;;18.10;42.41;99400.19;6253903;23;20239;-84
2022/05/16 01:44:21;;;;;;;13.17;3.10;;;;;;;18.25;39.05;99394.91;6253858;23;20250;-85
2022/05/16 01:46:52;;;;;;;8.63;2.50;;;;;;;18.08;40.19;99410.00;6253620;23;20701;-86
2022/05/16 01:49:22;;;;;;;7.47;2.30;;;;;;;18.13;41.42;99400.94;6253399;23;20271;-86
2022/05/16 01:51:53;;;;;;;14.40;2.80;;;;;;;17.95;40.17;99390.56;6253469;23;20291;-86
2022/05/16 01:54:25;;;;;;;8.10;2.70;;;;;;;17.99;39.83;99402.63;6253103;23;20527;-86
2022/05/16 01:56:56;;;;;;;8.97;2.63;;;;;;;17.92;41.28;99398.66;6253960;23;20251;-83
2022/05/16 01:59:27;;;;;;;9.50;2.50;;;;;;;17.88;41.58;99391.88;6253435;23;20247;-82
2022/05/16 02:05:43;;;;;;;6.33;1.90;;;;;;;17.85;40.47;99419.31;6174099;23;20235;-81
2022/05/16 02:08:15;;;;;;;9.83;2.53;;;;;;;17.48;40.44;99404.78;6253380;23;20455;-82
2022/05/16 02:10:48;;;;;;;13.57;2.73;;;;;;;17.54;42.99;99399.13;6253345;23;20282;-82
2022/05/16 02:13:19;;;;;;;14.97;2.80;;;;;;;17.86;41.25;99404.31;6253300;23;20267;-82
2022/05/16 02:15:49;;;;;;;14.27;2.90;;;;;;;18.22;40.32;99410.94;6253531;23;20258;-82
2022/05/16 02:18:20;;;;;;;8.53;2.37;;;;;;;18.26;39.12;99413.31;6253845;23;20353;-82
2022/05/16 02:20:51;;;;;;;14.27;2.73;;;;;;;18.28;39.50;99410.59;6253861;23;20251;-80
2022/05/16 02:26:10;;;;;;;18.50;2.77;;;;;;;18.31;39.59;99415.66;6253989;23;20270;-81
2022/05/16 02:28:41;;;;;;;9.03;2.70;;;;;;;18.37;41.28;99404.72;6253994;23;20281;-81
2022/05/16 02:31:12;;;;;;;11.07;2.30;;;;;;;18.69;41.59;99425.66;6253901;23;20263;-82
2022/05/16 02:33:42;;;;;;;14.63;2.93;;;;;;;18.48;39.33;99428.69;6253022;23;20494;-81
2022/05/16 02:36:13;;;;;;;9.27;2.10;;;;;;;18.08;40.95;99431.16;6253190;23;20412;-82
2022/05/16 02:38:44;;;;;;;10.60;2.50;;;;;;;17.36;39.80;99416.03;6253131;23;20238;-82
2022/05/16 02:41:16;;;;;;;6.97;2.33;;;;;;;17.13;41.22;99420.84;6253265;23;20251;-82
2022/05/16 02:43:47;;;;;;;6.47;2.03;;;;;;;16.96;41.00;99434.16;6253255;23;20243;-81
2022/05/16 02:46:18;;;;;;;8.50;2.17;;;;;;;17.10;43.37;99425.44;6253169;23;20297;-82
2022/05/16 02:48:49;;;;;;;10.80;2.23;;;;;;;17.22;41.80;99425.63;6253357;23;20246;-82
2022/05/16 02:51:19;;;;;;;15.37;2.40;;;;;;;17.25;40.75;99436.00;6253256;23;20641;-82
2022/05/16 02:53:50;;;;;;;14.10;2.10;;;;;;;17.15;40.35;99429.53;6252833;23;20338;-82
2022/05/16 02:56:22;;;;;;;7.90;2.27;;;;;;;17.18;41.37;99434.63;6253083;23;20303;-82
2022/05/16 02:58:53;;;;;;;11.33;2.30;;;;;;;17.18;40.53;99424.09;6254428;23;20243;-82
2022/05/16 03:01:24;;;;;;;12.40;2.60;;;;;;;17.52;40.47;99432.69;6254916;23;20267;-82
2022/05/16 03:03:55;;;;;;;8.77;2.30;;;;;;;17.62;41.06;99418.03;6253366;23;20445;-82
2022/05/16 03:06:26;;;;;;;8.80;1.87;;;;;;;17.66;40.09;99424.81;6254587;23;20251;-81
2022/05/16 03:08:56;;;;;;;8.80;2.00;;;;;;;17.74;40.49;99447.28;6254053;23;20239;-81
2022/05/16 03:11:28;;;;;;;10.47;2.10;;;;;;;17.63;40.53;99451.41;6253678;23;20302;-82
2022/05/16 03:13:59;;;;;;;11.90;2.00;;;;;;;17.45;41.08;99452.50;6254523;23;20274;-82
2022/05/16 03:16:30;;;;;;;7.87;1.83;;;;;;;17.35;41.88;99443.41;6253846;23;20299;-81
2022/05/16 03:19:00;;;;;;;18.07;2.83;;;;;;;17.51;42.32;99446.84;6253817;23;20250;-82
2022/05/16 03:21:31;;;;;;;22.23;2.37;;;;;;;17.77;41.91;99452.38;6253114;23;20286;-81
2022/05/16 03:24:02;;;;;;;7.73;1.83;;;;;;;17.67;40.79;99441.50;6253385;23;20245;-81
2022/05/16 03:26:34;;;;;;;10.30;1.90;;;;;;;17.63;41.40;99459.34;6252611;23;20318;-81
2022/05/16 03:29:06;;;;;;;9.83;2.47;;;;;;;17.51;40.82;99462.69;6252780;23;20294;-81
2022/05/16 03:31:37;;;;;;;7.30;2.60;;;;;;;17.15;40.84;99461.22;6252959;23;20247;-82
2022/05/16 03:34:07;;;;;;;6.70;2.13;;;;;;;17.18;41.27;99458.41;6253412;23;20309;-82
2022/05/16 03:36:39;;;;;;;6.20;1.83;;;;;;;17.16;41.57;99457.63;6253603;23;20241;-82
2022/05/16 03:41:59;;;;;;;7.50;2.33;;;;;;;17.27;43.50;99464.09;6253714;23;20254;-82
2022/05/16 03:44:29;;;;;;;6.97;2.00;;;;;;;17.60;42.49;99478.00;6253691;23;20267;-82
2022/05/16 03:47:00;;;;;;;5.10;1.83;;;;;;;17.84;40.68;99467.81;6253000;23;20293;-83
2022/05/16 03:49:31;;;;;;;7.93;2.20;;;;;;;17.92;39.38;99475.28;6252707;23;20247;-82
2022/05/16 03:52:02;;;;;;;9.40;1.90;;;;;;;17.84;38.84;99472.25;6253166;23;20279;-81
2022/05/16 03:54:32;;;;;;;6.07;1.80;;;;;;;17.81;40.10;99477.72;6253433;23;20247;-81
2022/05/16 03:57:05;;;;;;;6.17;1.70;;;;;;;17.90;39.76;99490.41;6253170;23;20275;-82
2022/05/16 03:59:36;;;;;;;30.53;3.77;;;;;;;17.98;39.00;99488.16;6252961;23;20274;-82
2022/05/16 04:02:08;;;;;;;5.73;2.07;;;;;;;17.94;39.27;99465.47;6252917;23;20261;-82
2022/05/16 04:04:38;;;;;;;10.47;2.13;;;;;;;18.06;39.80;99491.19;6252573;23;20273;-82
2022/05/16 04:07:09;;;;;;;7.73;2.53;;;;;;;18.04;38.86;99485.13;6252914;23;20242;-83
2022/05/16 04:09:40;;;;;;;13.97;2.47;;;;;;;18.05;37.68;99489.50;6252513;23;20247;-82
2022/05/16 04:12:12;;;;;;;8.10;2.27;;;;;;;18.00;38.81;99502.13;6252457;23;20314;-81
2022/05/16 04:14:43;;;;;;;13.13;1.80;;;;;;;18.00;39.43;99502.13;6252639;23;20247;-81
2022/05/16 04:17:14;;;;;;;15.33;2.60;;;;;;;17.94;39.36;99501.63;6252205;23;20251;-81
2022/05/16 04:19:45;;;;;;;7.13;2.00;;;;;;;18.05;38.63;99500.06;6254124;23;20247;-81
2022/05/16 04:22:16;;;;;;;12.10;2.20;;;;;;;18.04;39.34;99485.13;6254185;23;20267;-82
2022/05/16 04:24:49;;;;;;;8.97;2.10;;;;;;;18.19;38.23;99501.03;6254019;23;20235;-86
2022/05/16 04:27:22;;;;;;;13.73;2.30;;;;;;;18.10;38.68;99503.28;6254138;23;20252;-84
2022/05/16 04:29:53;;;;;;;6.47;2.17;;;;;;;18.18;37.67;99509.91;6254200;23;20253;-83
2022/05/16 04:32:23;;;;;;;9.50;2.20;;;;;;;18.13;38.59;99512.84;6253971;23;20271;-82
2022/05/16 04:34:54;;;;;;;14.13;2.20;;;;;;;18.05;37.12;99508.00;6253890;23;20251;-83
2022/05/16 04:37:26;;;;;;;8.83;2.30;;;;;;;17.46;37.94;99443.63;6254095;23;20270;-83
2022/05/16 04:39:56;;;;;;;7.23;2.23;;;;;;;17.87;37.61;99527.56;6254058;23;20235;-82
2022/05/16 04:42:44;;;;;;;9.20;2.30;;;;;;;17.84;37.67;99535.69;6254225;23;20286;-85
2022/05/16 04:45:18;;;;;;;16.83;2.23;;;;;;;17.77;38.34;99510.50;6254350;23;20590;-82
2022/05/16 04:47:51;;;;;;;6.77;2.40;;;;;;;17.74;39.09;99510.69;6254515;23;20272;-82
2022/05/16 04:50:25;;;;;;;29.37;3.37;;;;;;;17.20;39.33;99522.53;6253964;23;20311;-82
2022/05/16 04:52:57;;;;;;;6.00;2.40;;;;;;;16.93;39.57;99540.72;6253776;23;20247;-82
2022/05/16 04:55:29;;;;;;;11.37;2.50;;;;;;;16.42;40.50;99481.03;6254030;23;20484;-83
2022/05/16 04:58:01;;;;;;;15.83;3.03;;;;;;;16.73;41.28;99528.56;6253948;23;20247;-83
2022/05/16 05:00:32;;;;;;;7.97;2.13;;;;;;;16.84;39.80;99529.81;6253469;23;20243;-81
2022/05/16 05:03:03;;;;;;;10.83;2.63;;;;;;;16.65;39.97;99536.06;6253937;23;20641;-82
2022/05/16 05:05:35;;;;;;;8.87;2.70;;;;;;;16.42;41.65;99539.03;6253480;23;20254;-82
2022/05/16 05:08:06;;;;;;;18.27;3.33;;;;;;;16.67;42.41;99544.72;6253346;23;20275;-82
2022/05/16 05:16:15;;;;;;;7.95;2.38;;;;;;;16.51;41.05;99543.84;6253570;23;20258;-83
2022/05/16 05:18:46;;;;;;;129.47;8.77;;;;;;;16.57;40.71;99559.31;6253311;23;20020;-83
2022/05/16 05:21:17;;;;;;;19.97;3.27;;;;;;;16.56;40.27;99528.63;6253773;23;20251;-83
2022/05/16 05:23:48;;;;;;;13.30;3.10;;;;;;;16.80;41.57;99540.53;6253625;23;20243;-82
2022/05/16 05:26:19;;;;;;;18.23;3.40;;;;;;;16.80;39.26;99540.53;6253869;23;20550;-82
2022/05/16 05:28:51;;;;;;;13.27;2.57;;;;;;;16.80;39.98;99547.59;6254239;23;20254;-82
2022/05/16 05:31:25;;;;;;;9.20;2.60;;;;;;;16.81;40.13;99521.13;6253689;23;20247;-83
2022/05/16 05:33:56;;;;;;;10.60;3.00;;;;;;;16.95;41.05;99522.19;6253721;23;20330;-83
2022/05/16 05:36:27;;;;;;;23.03;3.67;;;;;;;17.12;40.24;99551.13;6253483;23;20235;-84
2022/05/16 05:38:58;;;;;;;10.23;2.60;;;;;;;16.98;39.55;99553.69;6253804;23;20250;-83
2022/05/16 05:41:29;;;;;;;13.57;2.83;;;;;;;16.91;40.71;99568.13;6253693;23;20298;-83
2022/05/16 05:44:01;;;;;;;10.07;2.53;;;;;;;16.49;40.10;99540.41;6253359;23;20244;-84
2022/05/16 05:46:37;;;;;;;14.60;3.00;;;;;;;16.59;40.16;99554.81;6253383;23;20578;-84
2022/05/16 05:49:09;;;;;;;11.37;2.10;;;;;;;16.32;39.96;99539.50;6253212;23;20239;-84
2022/05/16 05:51:40;;;;;;;21.23;3.53;;;;;;;16.51;41.52;99559.66;6253507;23;20246;-84
2022/05/16 05:54:13;;;;;;;55.00;4.40;;;;;;;16.31;40.35;99539.59;6253015;23;20447;-84
2022/05/16 05:56:44;;;;;;;23.17;4.10;;;;;;;16.32;41.89;99571.13;6252979;23;20309;-84
2022/05/16 05:59:16;;;;;;;11.07;3.07;;;;;;;16.32;42.07;99565.84;6253054;23;20247;-84
2022/05/16 06:01:49;;;;;;;19.07;3.27;;;;;;;16.21;42.50;99578.75;6253235;23;20250;-85
2022/05/16 06:04:19;;;;;;;9.87;2.73;;;;;;;16.20;43.13;99571.78;6253148;23;20302;-83
2022/05/16 06:06:50;;;;;;;24.60;3.97;;;;;;;16.17;43.31;99550.81;6252893;23;20411;-81
2022/05/16 06:09:21;;;;;;;15.40;3.03;;;;;;;16.23;40.88;99566.34;6253581;23;20311;-81
2022/05/16 06:11:52;;;;;;;10.83;3.03;;;;;;;15.99;42.89;99562.31;6253663;23;20247;-81
2022/05/16 06:14:24;;;;;;;16.90;3.20;;;;;;;16.25;44.20;99580.31;6253278;23;20270;-79
2022/05/16 06:16:55;;;;;;;37.73;4.23;;;;;;;16.11;44.43;99585.41;6253398;23;20244;-80
2022/05/16 06:19:26;;;;;;;26.27;4.27;;;;;;;15.77;44.86;99571.25;6253296;23;20253;-79
2022/05/16 06:21:57;;;;;;;10.93;2.60;;;;;;;15.58;45.22;99588.88;6253364;23;20247;-79
2022/05/16 06:27:18;;;;;;;14.40;3.37;;;;;;;15.27;45.83;99549.00;6203599;23;20303;-80
2022/05/16 06:29:50;;;;;;;14.13;3.00;;;;;;;15.78;46.66;99596.69;6253433;23;20430;-80
2022/05/16 06:32:21;;;;;;;15.90;3.03;;;;;;;15.74;46.34;99601.22;6253350;23;20246;-80
2022/05/16 06:34:51;;;;;;;12.43;3.33;;;;;;;15.77;46.70;99605.50;6253404;23;20379;-78
2022/05/16 06:37:22;;;;;;;39.47;3.93;;;;;;;15.80;45.80;99608.00;6253122;23;20247;-79
2022/05/16 06:39:52;;;;;;;12.87;3.03;;;;;;;16.03;45.33;99611.31;6252755;23;20251;-79
2022/05/16 06:42:23;;;;;;;63.33;5.87;;;;;;;16.16;45.29;99617.66;6252334;23;20269;-78
2022/05/16 06:44:55;;;;;;;10.57;3.43;;;;;;;16.23;45.00;99624.34;6252942;23;20250;-79
2022/05/16 06:47:26;;;;;;;17.47;5.77;;;;;;;16.20;45.21;99619.22;6252952;23;20274;-79
2022/05/16 06:49:57;;;;;;;11.13;3.10;;;;;;;16.15;45.14;99597.53;6252934;23;20247;-79
2022/05/16 06:52:27;;;;;;;13.17;3.93;;;;;;;16.39;44.36;99637.59;6252914;23;20246;-79
2022/05/16 06:54:58;;;;;;;12.17;3.43;;;;;;;16.17;45.35;99608.81;6252895;23;20349;-79
2022/05/16 06:57:28;;;;;;;19.87;3.73;;;;;;;16.42;45.67;99631.31;6253208;23;20270;-80
2022/05/16 07:00:01;;;;;;;7.67;2.70;;;;;;;16.51;45.98;99644.88;6252963;23;20243;-81
2022/05/16 07:02:32;;;;;;;18.97;3.10;;;;;;;16.51;45.54;99644.03;6252806;23;20306;-81
2022/05/16 07:05:03;;;;;;;11.00;3.13;;;;;;;16.49;43.70;99651.16;6252977;23;20297;-81
2022/05/16 07:07:34;;;;;;;10.13;3.47;;;;;;;16.45;44.73;99645.22;6252900;23;20271;-81
2022/05/16 07:10:05;;;;;;;13.57;3.20;;;;;;;16.11;45.49;99612.63;6252552;23;20263;-81
2022/05/16 07:12:36;;;;;;;30.43;3.70;;;;;;;16.01;45.65;99640.34;6252707;23;20271;-80
2022/05/16 07:15:10;;;;;;;19.00;3.57;;;;;;;15.81;46.05;99632.56;6252200;23;20255;-83
2022/05/16 07:17:41;;;;;;;12.40;3.50;;;;;;;15.72;46.89;99654.91;6252210;23;20271;-81
2022/05/16 07:20:12;;;;;;;12.93;3.37;;;;;;;15.50;47.35;99660.28;6252534;23;20314;-80
2022/05/16 07:22:45;;;;;;;10.90;3.00;;;;;;;15.08;47.89;99606.09;6252781;23;20274;-81
2022/05/16 07:25:17;;;;;;;16.63;4.10;;;;;;;14.98;47.92;99600.38;6252538;23;20739;-81
2022/05/16 07:27:59;;;;;;;11.97;3.57;;;;;;;15.16;47.99;99674.16;6252853;23;20314;-80
2022/05/16 07:30:35;;;;;;;11.10;3.60;;;;;;;14.97;47.81;99659.16;6252642;23;20267;-81
2022/05/16 07:33:06;;;;;;;13.80;3.80;;;;;;;14.94;48.66;99672.47;6252418;23;20574;-81
2022/05/16 07:35:44;;;;;;;71.83;6.83;;;;;;;14.84;48.80;99652.75;6252385;23;20259;-80
2022/05/16 07:38:17;;;;;;;15.27;3.30;;;;;;;15.04;48.91;99693.97;6253119;23;20589;-82
2022/05/16 07:40:48;;;;;;;12.37;3.63;;;;;;;15.15;48.86;99685.56;6252362;23;20272;-79
2022/05/16 07:43:19;;;;;;;15.97;3.80;;;;;;;15.03;48.76;99687.84;6252647;23;20582;-79
2022/05/16 07:45:52;;;;;;;13.07;4.33;;;;;;;15.03;49.52;99682.59;6252608;23;20449;-78
2022/05/16 07:48:24;;;;;;;16.53;4.17;;;;;;;14.92;49.67;99699.75;6252718;23;20513;-78
2022/05/16 07:50:55;;;;;;;11.70;3.83;;;;;;;14.88;50.15;99699.03;6252571;23;20589;-78
2022/05/16 07:53:27;;;;;;;12.10;4.20;;;;;;;14.44;51.02;99646.53;6254478;23;20578;-78
2022/05/16 07:55:59;;;;;;;15.13;3.77;;;;;;;14.14;50.30;99665.25;6255611;23;20574;-81
2022/05/16 07:58:29;;;;;;;20.43;4.30;;;;;;;14.26;51.61;99705.13;6254804;23;20263;-79
2022/05/16 08:01:02;;;;;;;12.90;4.27;;;;;;;14.29;52.71;99704.97;6254294;23;20282;-78
2022/05/16 08:03:33;;;;;;;25.70;5.40;;;;;;;14.44;52.99;99704.34;6254429;23;20559;-78
2022/05/16 08:06:04;;;;;;;91.17;8.83;;;;;;;14.52;53.30;99707.50;6254717;23;20266;-78
2022/05/16 08:11:21;;;;;;;20.97;5.40;;;;;;;14.37;53.84;99718.66;6254664;23;20311;-78
2022/05/16 08:13:52;;;;;;;21.10;5.63;;;;;;;14.01;54.65;99703.47;6254593;23;20550;-79
2022/05/16 08:16:24;;;;;;;12.93;4.20;;;;;;;13.96;53.86;99734.31;6254374;23;20293;-82
2022/05/16 08:18:55;;;;;;;16.50;4.23;;;;;;;13.96;53.83;99731.69;6254281;23;20250;-81
2022/05/16 08:21:26;;;;;;;18.97;3.90;;;;;;;13.75;54.38;99721.09;6254540;23;20281;-82
2022/05/16 08:23:57;;;;;;;15.10;4.28;;;;;;;13.69;54.59;99726.56;6254521;23;20270;-82
2022/05/16 08:26:27;;;;;;;25.10;5.97;;;;;;;13.69;54.75;99747.56;6254583;23;20055;-81
2022/05/16 08:28:58;;;;;;;22.40;4.57;;;;;;;13.51;55.22;99748.25;6254728;23;20028;-82
2022/05/16 08:31:30;;;;;;;13.52;4.07;;;;;;;13.24;55.70;99722.06;6254345;23;20020;-83
2022/05/16 08:34:02;;;;;;;16.50;4.15;;;;;;;13.48;56.03;99753.59;6254425;23;20038;-84
2022/05/16 08:42:09;;;;;;;21.75;4.88;;;;;;;13.50;56.95;99767.53;6254245;23;20334;-85
2022/05/16 08:44:50;;;;;;;22.25;5.03;;;;;;;13.46;56.52;99776.44;6254558;23;20027;-83
2022/05/16 08:47:40;;;;;;;16.77;5.20;;;;;;;13.47;56.88;99783.38;6254274;23;20024;-83
2022/05/16 08:50:15;;;;;;;13.73;4.53;;;;;;;13.24;56.93;99782.41;6254098;23;20331;-83
2022/05/16 08:52:52;;;;;;;16.15;5.32;;;;;;;13.03;57.57;99793.63;6254113;23;20362;-82
2022/05/16 08:55:30;;;;;;;18.27;5.45;;;;;;;12.93;58.03;99793.94;6253513;23;20028;-84
2022/05/16 08:58:07;;;;;;;21.50;5.15;;;;;;;12.72;58.30;99778.91;6253345;23;20032;-83
2022/05/16 09:00:47;;;;;;;19.50;4.88;;;;;;;12.70;59.12;99813.06;6255917;23;20024;-82
2022/05/16 09:03:23;;;;;;;24.80;5.65;;;;;;;12.68;59.40;99804.38;6256137;23;20016;-82
2022/05/16 09:05:59;;;;;;;18.20;5.10;;;;;;;12.18;59.99;99756.19;6256649;23;20020;-82
2022/05/16 09:08:40;;;;;;;22.00;8.60;;;;;;;12.17;60.20;99775.44;6257086;23;20347;-82
2022/05/16 09:11:17;;;;;;;26.25;7.40;;;;;;;12.32;60.61;99822.13;6256373;23;20223;-80
2022/05/16 09:13:56;;;;;;;22.02;5.75;;;;;;;12.04;60.97;99812.47;6255920;23;20311;-83
2022/05/16 09:16:37;;;;;;;;;;;;;;;12.09;61.30;99831.53;6256851;23;20063;-81
2022/05/16 09:19:32;;;;;;;20.73;6.20;;;;;;;11.92;61.66;99811.97;6255812;23;19926;-82
2022/05/16 09:22:10;;;;;;;27.10;6.47;;;;;;;11.91;61.97;99818.97;6238541;23;20015;-81
2022/05/16 09:24:49;;;;;;;44.28;7.28;;;;;;;11.93;61.95;99839.88;6255822;23;20032;-81
2022/05/16 09:30:10;;;;;;;15.60;5.10;;;;;;;11.74;62.55;99855.22;6255070;23;20035;-81
2022/05/16 09:32:44;;;;;;;22.90;5.95;;;;;;;11.41;63.00;99826.44;6256512;23;20023;-80
2022/05/16 09:35:36;;;;;;;24.60;7.13;;;;;;;11.59;63.44;99865.19;6255867;23;20024;-81
2022/05/16 09:38:07;;;;;;;21.45;6.50;;;;;;;11.53;63.85;99854.91;6256024;23;20035;-81
2022/05/16 09:40:41;;;;;;;19.42;5.75;;;;;;;11.48;64.16;99874.22;6256488;23;20024;-81
2022/05/16 09:43:18;;;;;;;22.58;6.13;;;;;;;11.45;64.28;99864.69;6256096;23;20051;-81
2022/05/16 09:45:55;;;;;;;24.70;7.93;;;;;;;11.43;64.45;99871.72;6256037;23;20024;-81
2022/05/16 09:48:26;;;;;;;27.00;8.70;;;;;;;11.31;64.51;99866.81;6256228;23;20031;-81
2022/05/16 09:51:03;;;;;;;24.55;8.10;;;;;;;11.21;64.94;99860.97;6255676;23;20035;-81
2022/05/16 09:53:37;;;;;;;26.02;9.05;;;;;;;11.23;65.24;99883.56;6255842;23;20019;-81
2022/05/16 09:56:15;;;;;;;18.25;6.40;;;;;;;11.04;65.55;99868.38;6256232;23;20020;-80
2022/05/16 09:58:51;;;;;;;23.05;6.38;;;;;;;11.13;65.93;99889.94;6256012;23;20027;-80
2022/05/16 10:01:34;;;;;;;21.35;7.15;;;;;;;10.96;66.04;99866.81;6256066;23;20223;-81
2022/05/16 10:04:14;;;;;;;24.98;7.95;;;;;;;10.87;66.00;99855.72;6256234;23;20024;-80
2022/05/16 10:06:57;;;;;;;;;;;;;;;11.04;66.07;99884.91;6256676;23;20020;-80
2022/05/16 10:09:32;;;;;;;19.30;5.90;;;;;;;10.93;66.13;99881.69;6255711;23;19919;-80
2022/05/16 10:12:04;;;;;;;25.13;6.07;;;;;;;10.74;66.60;99865.59;6255965;23;20035;-81
2022/05/16 10:14:36;;;;;;;15.15;5.75;;;;;;;10.84;66.82;99897.59;6256347;23;20044;-81
2022/05/16 10:17:09;;;;;;;20.10;6.20;;;;;;;10.76;67.01;99901.25;6255517;23;20024;-81
2022/05/16 10:19:43;;;;;;;24.98;5.85;;;;;;;10.77;67.31;99913.41;6255315;23;20216;-81
2022/05/16 10:22:19;;;;;;;27.75;7.25;;;;;;;10.14;67.52;99822.50;6255010;23;20043;-81
2022/05/16 10:24:55;;;;;;;21.48;6.95;;;;;;;10.68;67.71;99924.06;6255847;23;20055;-81
2022/05/16 10:27:29;;;;;;;19.27;6.45;;;;;;;10.66;68.04;99925.00;6222805;23;20324;-81
2022/05/16 10:30:04;;;;;;;20.73;7.13;;;;;;;10.64;68.16;99938.09;6225392;23;20027;-80
2022/05/16 10:35:30;;;;;;;21.92;7.45;;;;;;;10.66;68.18;99928.50;6225700;23;20321;-81
2022/05/16 10:38:07;;;;;;;23.13;6.85;;;;;;;10.60;68.25;99926.00;6225872;23;20028;-80
2022/05/16 10:40:43;;;;;;;15.50;6.30;;;;;;;10.82;68.06;99947.28;6225259;23;20028;-81
2022/05/16 10:43:27;;;;;;;23.92;7.78;;;;;;;10.85;67.95;99948.97;6222308;23;20232;-83
2022/05/16 10:46:06;;;;;;;27.52;6.72;;;;;;;10.84;68.24;99960.34;6222171;23;20052;-83
2022/05/16 10:48:45;;;;;;;26.13;7.53;;;;;;;10.75;68.18;99959.63;6221758;23;20022;-83
2022/05/16 10:51:17;;;;;;;;;;;;;;;10.74;68.74;99970.97;6222912;23;20029;-84
2022/05/16 10:54:00;;;;;;;27.17;6.60;;;;;;;10.57;68.79;99952.19;6222718;23;19919;-84
2022/05/16 10:57:06;;;;;;;21.00;7.43;;;;;;;10.70;68.97;99977.16;6222565;23;20296;-85
2022/05/16 11:00:06;;;;;;;22.60;7.80;;;;;;;10.69;69.19;99972.84;6222416;23;20028;-84
2022/05/16 11:02:56;;;;;;;;;;;;;;;10.66;69.51;99978.13;6223403;23;20021;-83
2022/05/16 11:05:43;;;;;;;28.30;9.25;;;;;;;10.63;69.67;99972.94;6223141;23;19911;-83
2022/05/16 11:08:29;;;;;;;24.35;7.95;;;;;;;10.64;69.55;99977.31;6222176;23;20387;-83
2022/05/16 11:11:08;;;;;;;16.90;7.78;;;;;;;10.66;69.74;99991.19;6222165;23;20028;-84
2022/05/16 11:13:47;;;;;;;23.52;6.28;;;;;;;10.63;69.93;99991.25;6221967;23;20032;-83
2022/05/16 11:16:23;;;;;;;20.40;7.53;;;;;;;10.49;70.23;99986.31;6221762;23;20100;-83
2022/05/16 11:19:07;;;;;;;16.92;6.80;;;;;;;10.55;70.39;99995.78;6222406;23;20020;-81
2022/05/16 11:21:46;;;;;;;21.73;7.30;;;;;;;10.56;70.72;100007.97;6222389;23;20025;-82
2022/05/16 11:24:32;;;;;;;21.20;6.35;;;;;;;10.43;70.53;99985.56;6222300;23;20048;-83
2022/05/16 11:27:14;;;;;;;18.05;5.80;;;;;;;10.62;70.33;100013.06;6250194;23;20076;-81
2022/05/16 11:29:54;;;;;;;19.92;6.75;;;;;;;10.64;70.40;100019.09;6252789;23;20031;-81
2022/05/16 11:32:39;;;;;;;;;;;;;;;10.65;70.41;100018.22;6253149;23;20088;-81
2022/05/16 11:35:18;;;;;;;21.98;6.32;;;;;;;10.54;70.45;100000.16;6252040;23;19919;-80
2022/05/16 11:38:10;;;;;;;14.40;6.55;;;;;;;10.63;70.76;100030.44;6252652;23;20083;-80
2022/05/16 11:40:48;;;;;;;17.67;6.95;;;;;;;10.64;70.82;100032.19;6252613;23;20032;-81
2022/05/16 11:43:26;;;;;;;20.70;7.10;;;;;;;10.08;71.40;99945.31;6252767;23;20020;-81
2022/05/16 11:46:29;;;;;;;22.27;6.65;;;;;;;10.70;70.95;100045.09;6252639;23;20035;-81
2022/05/16 11:49:28;;;;;;;18.58;6.97;;;;;;;10.73;70.99;100052.91;6252688;23;20111;-82
2022/05/16 11:52:32;;;;;;;15.57;6.00;;;;;;;10.67;71.06;100034.72;6252536;23;20021;-82
2022/05/16 12:00:31;;;;;;;23.73;7.07;;;;;;;10.67;70.71;100037.34;6253005;23;20027;-82
2022/05/16 12:00:57;;;;;;;22.55;6.55;;;;;;;10.64;70.95;100032.19;6253731;23;20020;-83
2022/05/16 12:03:35;;;;;;;;;;;;;;;10.78;70.93;100064.13;6254263;23;20020;-82
2022/05/16 12:06:26;;;;;;;17.88;6.35;;;;;;;10.67;70.87;100053.00;6254031;23;19912;-84
2022/05/16 12:09:21;;;;;;;17.20;6.82;;;;;;;10.73;71.05;100058.13;6253945;23;20028;-85
2022/05/16 12:11:56;;;;;;;20.77;6.82;;;;;;;10.69;71.41;100053.00;6255054;23;20247;-84
2022/05/16 12:14:32;;;;;;;25.38;6.75;;;;;;;10.31;71.36;100003.22;6255664;23;20024;-84
2022/05/16 12:17:23;;;;;;;24.77;6.70;;;;;;;10.70;71.19;100058.16;6255887;23;20062;-84
2022/05/16 12:19:55;;;;;;;24.33;6.78;;;;;;;10.68;71.34;100057.34;6255853;23;20044;-84
2022/05/16 12:22:48;;;;;;;20.80;6.57;;;;;;;9.81;71.25;99924.09;6255559;23;20020;-84
2022/05/16 12:25:32;;;;;;;24.42;6.70;;;;;;;10.60;71.82;100077.53;6272868;22;20004;-85
2022/05/16 12:28:21;;;;;;;17.45;6.00;;;;;;;10.60;71.90;100071.44;6273258;22;20063;-85
2022/05/16 12:30:54;;;;;;;22.85;6.38;;;;;;;10.31;72.07;100029.34;6272409;22;20009;-84
2022/05/16 12:33:49;;;;;;;15.23;6.32;;;;;;;10.63;71.70;100067.00;6272353;22;20016;-84
2022/05/16 12:36:23;;;;;;;22.25;6.93;;;;;;;10.12;71.31;99991.38;6272182;22;20012;-85
2022/05/16 12:38:59;;;;;;;20.67;5.90;;;;;;;10.42;71.57;100036.97;6272557;22;20008;-86
2022/05/16 12:41:55;;;;;;;18.20;5.68;;;;;;;10.63;71.61;100080.06;6274030;23;20058;-85
2022/05/16 12:44:47;;;;;;;16.58;6.32;;;;;;;10.62;71.78;100080.13;6272463;22;20011;-85
2022/05/16 12:47:48;;;;;;;18.15;6.22;;;;;;;10.64;71.50;100081.81;6271925;22;20035;-85
2022/05/16 12:50:45;;;;;;;17.33;6.07;;;;;;;10.61;71.81;100081.88;6264482;22;20042;-86
2022/05/16 12:54:00;;;;;;;19.20;6.15;;;;;;;10.43;71.84;100053.47;6272001;22;20012;-84
2022/05/16 12:56:37;;;;;;;16.80;5.78;;;;;;;10.54;71.75;100075.06;6272123;22;20008;-83
2022/05/16 12:59:13;;;;;;;23.23;6.93;;;;;;;10.38;71.53;100050.09;6272527;22;20012;-84
2022/05/16 13:01:49;;;;;;;20.58;6.03;;;;;;;10.39;71.35;100044.88;6271978;22;20050;-84
2022/05/16 13:04:28;;;;;;;26.30;6.70;;;;;;;10.59;71.48;100073.22;6272066;22;20016;-82